Aeroporto :
LOGIN :

Iscrizione | Disclaimer

   EN    FR    IT 

 










Sommario :    VFR   VFR Marginale   IFR   IFR Intensivo   IFR Molto Intensivo
Visibilità : 
Base nubi : 
>= 8 km
>= 3000ft
5 / 8 km
1000 / 3000 ft
1500m / 5 km
500 / 1000 ft
800 / 1500m
200 / 500 ft
< 800m
< 200 ft
Simboli :   Temporali  Nebbia  Neve Forte  Precipitazioni Forti  Vento > 20 kt
SIGMETs :   Varie  Temporali  Ghiacco  Turbolenza  Onda orograficha  Ceneri Vulcaniche






- Altitudine del aeroporto : 479 ft
- Codice IATA : DOL


LFRG - Deauville

ULTIMO METAR :
  • 090930Z AUTO 31016G26KT 270V350 9999 BKN030/// OVC036/// ///CB 10/05 Q1009 TEMPO 4000 SHRA BECMG 31025G45KT BKN030

METARs OBSOLETI :
  • 090900Z AUTO 30019G33KT 270V330 9999 BKN031/// OVC038/// ///CB 10/05 Q1007 TEMPO 4000 SHRA BECMG 31025G45KT
  • 090830Z AUTO 30016G31KT 270V340 9999 BKN030 BKN037 OVC048 10/05 Q1006 TEMPO 4000 SHRA BKN015TCU BECMG 31025G45KT
  • 090800Z AUTO 30017G34KT 260V340 9999 FEW022/// SCT031/// BKN047/// ///CB 09/06 Q1005 TEMPO 30030G50KT 4000 SHRA
  • 090730Z AUTO 29021G36KT 260V330 9999 BKN030/// BKN035/// OVC044/// ///TCU 10/06 Q1004 TEMPO 30030G50KT 4000 SHRA BKN015CB
  • 090700Z AUTO 29021G31KT 260V330 9999 SCT021/// OVC027/// ///CB 10/07 Q1003 TEMPO 30030G50KT 2000 TSRAGS

TAF TAF LFRG
Valido dal 09 a 09 ore il 09 a 18 ore UTC


090800Z 0909/0918 31025G45KT 9999 BKN030
TEMPO 0909/0911 4000 SHRA BKN015TCU
BECMG 0912/0914 32015G35KT
BECMG 0916/0918 33015G25KT
ATIS : +33 2 31 65 65 36



MetMap, La meteo Aeronautica in un colpo d'occhio ! - Copyright ORBIFLY Dicembre 2007 - Disclaimer

ORBIFLY MET'MAP TEAM :

Programmazione e sviluppo : Alexandra Zaïnal
Concezione : Baudouin d'Aumeries
Aiuto per la programmazione : Marc-Olivier Méhu
Supporto tecnico e logistico : Manuel Goepfert
Aiuto per la traduzione : Arnaldo La Scala

Contatto : metmap@orbifly.com




FONTI E CREDITI :

   NOAA